Terminal Aerodrome Forecast
Issued by NWS

Home | Current Version | Previous Version | Text Only | Print | Product List | Glossary On
Versions: 1 2 3 4 5 6 7 8 9 10 11 12 13 14 15 16 17 18 19 20 21 22 23 24 25 26 27 28 29
000
FTUS46 KSGX 171700
TAFSAN
TAF
KSAN 171721Z 1718/1824 20009KT P6SM BKN019 BKN200
     FM171930 20009KT P6SM SCT020 BKN200
     FM180130 VRB05KT P6SM OVC018
     FM181100 19009KT P6SM OVC025
     FM181730 20009KT P6SM SCT025 BKN150=

USA.gov is the U.S. government's official web portal to all federal, state and local government web resources and services.